createdAt,value
2023-05-07T00:00:14.270Z,41.9
2023-05-07T00:05:36.915Z,41.9
2023-05-07T00:11:14.517Z,41.8
2023-05-07T00:16:51.534Z,41.8
2023-05-07T00:22:29.576Z,41.8
2023-05-07T00:28:06.102Z,41.8
2023-05-07T00:33:58.697Z,41.8
2023-05-07T00:39:51.111Z,41.7
2023-05-07T00:45:27.887Z,41.7
2023-05-07T00:51:20.526Z,41.6
2023-05-07T00:57:11.598Z,41.6
2023-05-07T01:03:06.128Z,41.6
2023-05-07T01:09:03.927Z,41.6
2023-05-07T01:14:40.931Z,41.6
2023-05-07T01:20:33.160Z,41.5
2023-05-07T01:26:25.316Z,41.5
2023-05-07T01:32:17.442Z,41.4
2023-05-07T01:38:09.623Z,41.4
2023-05-07T01:44:02.179Z,41.4
2023-05-07T01:49:54.298Z,41.4
2023-05-07T01:55:46.623Z,41.4
2023-05-07T02:01:38.450Z,41.3
2023-05-07T02:07:31.438Z,41.3
2023-05-07T02:13:23.974Z,41.3
2023-05-07T02:19:15.909Z,41.3
2023-05-07T02:25:10.726Z,41.2
2023-05-07T02:31:02.567Z,41.2
2023-05-07T02:36:54.509Z,41.2
2023-05-07T02:42:46.040Z,41.1
2023-05-07T02:48:38.486Z,41.1
2023-05-07T02:54:32.632Z,41.1
2023-05-07T03:00:26.136Z,41.1
2023-05-07T03:06:18.894Z,41.1
2023-05-07T03:12:10.685Z,41
2023-05-07T03:18:02.786Z,40.9
2023-05-07T03:23:57.738Z,40.9
2023-05-07T03:29:49.691Z,40.9
2023-05-07T03:35:41.733Z,40.9
2023-05-07T03:41:35.585Z,40.9
2023-05-07T03:47:27.201Z,40.9
2023-05-07T03:53:19.386Z,40.8
2023-05-07T03:59:12.029Z,40.8
2023-05-07T04:05:05.414Z,40.8
2023-05-07T04:10:57.664Z,40.8
2023-05-07T04:16:50.508Z,40.8
2023-05-07T04:22:42.384Z,40.7
2023-05-07T04:28:34.672Z,40.6
2023-05-07T04:34:27.076Z,40.6
2023-05-07T04:40:18.822Z,40.6
2023-05-07T04:46:11.695Z,40.6
2023-05-07T04:52:04.168Z,40.6
2023-05-07T04:57:56.168Z,40.6
2023-05-07T05:03:49.826Z,40.5
2023-05-07T05:09:41.937Z,40.5
2023-05-07T05:15:33.966Z,40.4
2023-05-07T05:21:26.626Z,40.4
2023-05-07T05:27:18.020Z,40.4
2023-05-07T05:33:11.606Z,40.4
2023-05-07T05:39:03.648Z,40.4
2023-05-07T05:44:55.780Z,40.3
2023-05-07T05:50:34.958Z,40.3
2023-05-07T05:56:27.659Z,40.3
2023-05-07T06:02:19.918Z,40.3
2023-05-07T06:08:12.046Z,40.3
2023-05-07T06:14:04.172Z,40.3
2023-05-07T06:19:56.435Z,40.2
2023-05-07T06:25:50.320Z,40.2
2023-05-07T06:31:41.103Z,40.1
2023-05-07T06:37:34.817Z,40.1
2023-05-07T06:43:26.375Z,40.1
2023-05-07T06:49:19.158Z,40
2023-05-07T06:54:57.326Z,40
2023-05-07T07:00:49.347Z,39.9
2023-05-07T07:06:42.350Z,39.9
2023-05-07T07:12:34.802Z,39.9
2023-05-07T07:18:27.828Z,39.9
2023-05-07T07:24:21.161Z,39.9
2023-05-07T07:30:15.167Z,39.9
2023-05-07T07:36:09.489Z,39.8
2023-05-07T07:42:12.314Z,40
2023-05-07T07:48:06.302Z,40.3
2023-05-07T07:54:16.779Z,40.7
2023-05-07T08:00:14.506Z,41.1
2023-05-07T08:05:56.802Z,41.6
2023-05-07T08:11:52.887Z,42.1
2023-05-07T08:17:47.426Z,42.6
2023-05-07T08:23:42.031Z,43.1
2023-05-07T08:29:36.637Z,43.6
2023-05-07T08:35:32.993Z,44.1
2023-05-07T08:41:29.227Z,44.6
2023-05-07T08:47:23.753Z,45.1
2023-05-07T08:53:17.927Z,45.7
2023-05-07T08:59:13.248Z,46.2
2023-05-07T09:05:08.255Z,46.8
2023-05-07T09:10:49.677Z,47.3
2023-05-07T09:16:29.275Z,47.6
2023-05-07T09:22:25.267Z,48
2023-05-07T09:28:23.214Z,48.4
2023-05-07T09:34:19.034Z,48.9
2023-05-07T09:40:17.103Z,49.4
2023-05-07T09:46:10.758Z,49.9
2023-05-07T09:52:04.785Z,50.6
2023-05-07T09:58:01.426Z,51.1
2023-05-07T10:03:58.524Z,51.4
2023-05-07T10:09:51.944Z,51.8
2023-05-07T10:15:47.180Z,52.1
2023-05-07T10:21:43.669Z,52.4
2023-05-07T10:27:40.844Z,52.9
2023-05-07T10:33:36.182Z,53.3
2023-05-07T10:39:31.528Z,53.8
2023-05-07T10:45:10.885Z,54.2
2023-05-07T10:51:24.230Z,54.7
2023-05-07T10:57:02.822Z,55.1
2023-05-07T11:03:14.503Z,55.6
2023-05-07T11:09:09.599Z,55.9
2023-05-07T11:15:03.485Z,56.3
2023-05-07T11:21:01.273Z,56.8
2023-05-07T11:26:58.717Z,57.1
2023-05-07T11:32:52.888Z,57.4
2023-05-07T11:38:32.395Z,57.8
2023-05-07T11:44:31.094Z,58.1
2023-05-07T11:50:26.068Z,58.4
2023-05-07T11:56:22.071Z,58.6
2023-05-07T12:02:16.200Z,58.9
2023-05-07T12:08:11.772Z,59.2
2023-05-07T12:13:53.247Z,59.4
2023-05-07T12:19:33.544Z,59.7
2023-05-07T12:25:12.032Z,59.9
2023-05-07T12:30:35.890Z,60
2023-05-07T12:36:30.003Z,60.2
2023-05-07T12:42:23.730Z,60.4
2023-05-07T12:48:05.358Z,60.5
2023-05-07T12:53:43.191Z,60.6
2023-05-07T12:59:20.891Z,60.7
2023-05-07T13:05:01.432Z,60.8
2023-05-07T13:10:39.865Z,60.8
2023-05-07T13:16:22.229Z,60.8
2023-05-07T13:22:17.096Z,60.8
2023-05-07T13:28:23.220Z,60.8
2023-05-07T13:34:17.602Z,60.8
2023-05-07T13:40:12.350Z,60.8
2023-05-07T13:46:04.727Z,60.8
2023-05-07T13:51:56.367Z,60.8
2023-05-07T13:57:34.106Z,60.7
2023-05-07T14:03:27.512Z,60.7
2023-05-07T14:09:20.682Z,60.6
2023-05-07T14:15:15.532Z,60.6
2023-05-07T14:21:10.691Z,60.6
2023-05-07T14:27:19.565Z,60.5
2023-05-07T14:33:12.136Z,60.4
2023-05-07T14:39:04.025Z,60.4
2023-05-07T14:44:56.939Z,60.4
2023-05-07T14:50:48.822Z,60.4
2023-05-07T14:56:41.119Z,60.3
2023-05-07T15:02:38.560Z,60.3
2023-05-07T15:08:31.326Z,60.3
2023-05-07T15:14:23.243Z,60.2
2023-05-07T15:20:18.683Z,60.2
2023-05-07T15:26:10.819Z,60.1
2023-05-07T15:32:04.315Z,60.1
2023-05-07T15:37:56.767Z,60
2023-05-07T15:43:48.261Z,60
2023-05-07T15:49:40.326Z,59.9
2023-05-07T15:55:33.030Z,59.9
2023-05-07T16:01:26.214Z,59.9
2023-05-07T16:07:19.430Z,59.8
2023-05-07T16:13:12.271Z,59.8
2023-05-07T16:19:06.872Z,59.7
2023-05-07T16:24:58.987Z,59.6
2023-05-07T16:30:50.596Z,59.5
2023-05-07T16:36:44.171Z,59.5
2023-05-07T16:42:35.133Z,59.4
2023-05-07T16:48:15.220Z,59.4
2023-05-07T16:53:52.453Z,59.3
2023-05-07T16:59:43.942Z,59.3
2023-05-07T17:05:53.471Z,59.3
2023-05-07T17:11:47.197Z,59.2
2023-05-07T17:17:39.158Z,59.2
2023-05-07T17:23:31.005Z,59.1
2023-05-07T17:29:22.406Z,59.1
2023-05-07T17:35:31.670Z,59
2023-05-07T17:41:07.537Z,59
2023-05-07T17:46:59.611Z,58.9
2023-05-07T17:53:00.322Z,58.9
2023-05-07T17:58:41.664Z,58.9
2023-05-07T18:04:41.947Z,58.8
2023-05-07T18:10:17.962Z,58.8
2023-05-07T18:16:09.627Z,58.7
2023-05-07T18:22:03.672Z,58.7
2023-05-07T18:27:55.316Z,58.6
2023-05-07T18:39:27.290Z,58.5
2023-05-07T18:45:18.908Z,58.5
2023-05-07T18:51:11.749Z,58.4
2023-05-07T18:56:48.014Z,58.4
2023-05-07T19:02:38.581Z,58.3
2023-05-07T19:08:31.446Z,58.3
2023-05-07T19:14:37.522Z,58.2
2023-05-07T19:20:30.196Z,58.2
2023-05-07T19:26:22.611Z,58.1
2023-05-07T19:32:35.383Z,58.1
2023-05-07T19:38:12.609Z,58
2023-05-07T19:44:06.395Z,57.9
2023-05-07T19:50:01.916Z,57.9
2023-05-07T19:55:54.830Z,57.9
2023-05-07T20:01:49.391Z,57.8
2023-05-07T20:18:59.908Z,57.7
2023-05-07T20:24:38.137Z,57.6
2023-05-07T20:30:29.924Z,57.6
2023-05-07T20:36:22.201Z,57.6
2023-05-07T20:42:14.401Z,57.5
2023-05-07T20:48:09.309Z,57.4
2023-05-07T20:54:04.237Z,57.4
2023-05-07T20:59:56.006Z,57.4
2023-05-07T21:05:49.107Z,57.3
2023-05-07T21:11:40.800Z,57.3
2023-05-07T21:17:32.795Z,57.2
2023-05-07T21:23:24.914Z,57.1
2023-05-07T21:29:16.626Z,57.1
2023-05-07T21:34:53.952Z,57.1
2023-05-07T21:40:46.115Z,57
2023-05-07T21:46:38.375Z,57
2023-05-07T21:52:30.132Z,56.9
2023-05-07T21:58:36.864Z,56.9
2023-05-07T22:04:30.285Z,56.8
2023-05-07T22:10:21.459Z,56.8
2023-05-07T22:16:26.509Z,56.8
2023-05-07T22:22:18.142Z,56.7
2023-05-07T22:28:11.101Z,56.6
2023-05-07T22:33:50.466Z,56.6
2023-05-07T22:39:42.475Z,56.6
2023-05-07T22:45:34.748Z,56.5
2023-05-07T22:51:27.428Z,56.4
2023-05-07T22:57:19.177Z,56.4
2023-05-07T23:03:11.037Z,56.4
2023-05-07T23:09:02.754Z,56.3
2023-05-07T23:14:57.251Z,56.3
2023-05-07T23:20:49.679Z,56.3
2023-05-07T23:26:41.165Z,56.2
2023-05-07T23:32:33.571Z,56.1
2023-05-07T23:38:25.034Z,56.1
2023-05-07T23:44:15.754Z,56.1
2023-05-07T23:50:07.065Z,56
2023-05-07T23:55:58.064Z,55.9
